Time;durP1;ratioP1;P1;durP2;ratioP2;P2;SDS_P1;SDS_P2;PMS_P1;PMS_P2;Temp;Humidity;BMP_temperature;BMP_pressure;BME280_temperature;BME280_humidity;BME280_pressure;Samples;Min_cycle;Max_cycle;Signal;HPM_P1;HPM_P2
2022/04/21 00:02:11;;;;;;;2.80;1.08;;;;;;;10.53;43.58;99360.03;5066403;28;20040;-41
2022/04/21 00:04:36;;;;;;;1.83;1.00;;;;;;;10.59;43.40;99358.03;5064750;28;20113;-40
2022/04/21 00:07:02;;;;;;;2.20;1.20;;;;;;;10.56;42.78;99341.72;5050878;28;20048;-40
2022/04/21 00:09:28;;;;;;;2.10;1.00;;;;;;;10.74;42.96;99353.97;5054739;28;20105;-40
2022/04/21 00:11:53;;;;;;;1.92;1.08;;;;;;;10.82;42.73;99354.53;5066739;28;20044;-40
2022/04/21 00:14:19;;;;;;;3.10;1.65;;;;;;;10.80;42.56;99348.53;5038161;28;20485;-39
2022/04/21 00:16:45;;;;;;;2.83;0.93;;;;;;;10.94;42.42;99361.81;5055812;28;20079;-40
2022/04/21 00:19:11;;;;;;;3.50;0.98;;;;;;;11.00;42.42;99369.38;5055420;28;20099;-40
2022/04/21 00:24:21;;;;;;;3.15;1.00;;;;;;;11.02;42.61;99356.31;5062635;28;20503;-40
2022/04/21 00:26:47;;;;;;;2.05;1.02;;;;;;;11.06;42.28;99360.47;5063047;28;20040;-40
2022/04/21 00:29:13;;;;;;;2.33;1.10;;;;;;;11.12;42.33;99373.22;5054160;28;20045;-39
2022/04/21 00:31:39;;;;;;;3.45;1.10;;;;;;;11.14;42.53;99363.63;5052590;28;20479;-39
2022/04/21 00:34:05;;;;;;;1.63;0.93;;;;;;;11.17;42.50;99375.63;5052104;28;20036;-41
2022/04/21 00:36:31;;;;;;;1.02;0.80;;;;;;;11.10;42.58;99367.22;5067953;28;20076;-41
2022/04/21 00:38:56;;;;;;;3.55;0.90;;;;;;;11.10;42.14;99364.63;5059525;28;20044;-40
2022/04/21 00:41:23;;;;;;;2.03;1.15;;;;;;;11.18;42.10;99375.56;5060635;28;20504;-41
2022/04/21 00:43:48;;;;;;;1.77;1.00;;;;;;;11.19;42.53;99372.06;5051571;28;20051;-41
2022/04/21 00:46:18;;;;;;;1.42;0.82;;;;;;;11.22;42.45;99384.09;5051659;28;20044;-40
2022/04/21 00:48:44;;;;;;;;;;;;;;;11.20;42.50;99381.53;5060702;28;20544;-40
2022/04/21 00:51:10;;;;;;;1.80;1.00;;;;;;;11.15;42.21;99373.09;5047475;28;19925;-40
2022/04/21 00:53:37;;;;;;;1.90;0.70;;;;;;;11.16;42.52;99381.75;5067412;28;20584;-40
2022/04/21 00:56:05;;;;;;;1.40;0.98;;;;;;;11.09;42.62;99359.50;5033386;28;20040;-41
2022/04/21 00:58:30;;;;;;;2.08;1.02;;;;;;;11.13;42.44;99374.91;5047825;28;20053;-41
2022/04/21 01:00:57;;;;;;;1.60;1.00;;;;;;;11.09;42.50;99375.97;5048481;28;20114;-39
2022/04/21 01:03:22;;;;;;;3.03;1.08;;;;;;;11.07;42.94;99382.97;5061988;28;20132;-41
2022/04/21 01:05:49;;;;;;;3.03;1.00;;;;;;;11.07;43.31;99390.78;5047704;28;20127;-40
2022/04/21 01:08:15;;;;;;;2.25;0.98;;;;;;;11.10;42.63;99371.59;5063875;28;20086;-39
2022/04/21 01:10:43;;;;;;;4.38;1.20;;;;;;;11.12;42.93;99378.44;5059597;28;20038;-41
2022/04/21 01:13:10;;;;;;;2.67;1.20;;;;;;;11.10;42.76;99374.19;5066872;28;20195;-41
2022/04/21 01:15:37;;;;;;;8.20;1.40;;;;;;;11.09;42.79;99369.91;5049895;28;20467;-41
2022/04/21 01:18:04;;;;;;;3.08;0.90;;;;;;;11.05;43.36;99374.38;5056758;28;20032;-41
2022/04/21 01:20:30;;;;;;;2.63;1.13;;;;;;;11.03;43.35;99363.22;5055583;28;20047;-40
2022/04/21 01:22:56;;;;;;;3.13;0.80;;;;;;;10.99;43.22;99372.88;5053920;28;20037;-42
2022/04/21 01:25:22;;;;;;;2.72;1.13;;;;;;;10.96;43.23;99364.34;5047332;28;20060;-41
2022/04/21 01:27:54;;;;;;;2.40;1.00;;;;;;;10.99;43.19;99377.25;5048410;28;20147;-40
2022/04/21 01:30:20;;;;;;;2.83;1.00;;;;;;;11.01;43.44;99373.66;5027137;28;20535;-40
2022/04/21 01:32:48;;;;;;;2.20;1.20;;;;;;;11.00;43.49;99369.38;5045232;28;20048;-41
2022/04/21 01:35:13;;;;;;;3.72;1.00;;;;;;;10.92;44.19;99361.03;5046899;28;20475;-40
2022/04/21 01:43:09;;;;;;;9.57;1.00;;;;;;;10.91;43.41;99367.16;5061607;28;20178;-41
2022/04/21 01:45:35;;;;;;;3.05;0.93;;;;;;;10.87;43.73;99363.00;5046706;28;20052;-40
2022/04/21 01:48:02;;;;;;;1.33;0.90;;;;;;;10.89;44.13;99358.56;5046969;28;20513;-40
2022/04/21 01:50:28;;;;;;;4.93;1.30;;;;;;;10.93;44.06;99362.75;5031264;28;20103;-41
2022/04/21 01:52:56;;;;;;;1.17;0.80;;;;;;;10.89;44.00;99375.91;5054723;28;20151;-40
2022/04/21 01:55:22;;;;;;;1.65;1.23;;;;;;;10.87;44.07;99375.13;5063763;28;20081;-40
2022/04/21 01:57:48;;;;;;;1.70;0.80;;;;;;;10.81;44.08;99363.22;5050871;28;20419;-41
2022/04/21 02:00:14;;;;;;;5.05;1.02;;;;;;;10.85;44.39;99372.59;5048614;28;20053;-40
2022/04/21 02:02:41;;;;;;;1.45;0.93;;;;;;;10.80;43.83;99373.69;5053002;28;20048;-40
2022/04/21 02:05:07;;;;;;;3.17;0.93;;;;;;;10.76;44.50;99365.16;5059465;28;20139;-41
2022/04/21 02:07:33;;;;;;;1.27;0.80;;;;;;;10.77;44.72;99376.41;5050612;28;20159;-42
2022/04/21 02:09:59;;;;;;;4.32;0.82;;;;;;;10.79;44.00;99361.59;5047919;28;20244;-39
2022/04/21 02:12:29;;;;;;;1.77;1.08;;;;;;;10.72;44.57;99358.41;5055258;28;20040;-40
2022/04/21 02:14:55;;;;;;;1.48;1.10;;;;;;;10.79;44.56;99365.03;5054596;28;20048;-41
2022/04/21 02:17:21;;;;;;;2.00;0.90;;;;;;;10.81;44.71;99363.22;5053029;28;20762;-42
2022/04/21 02:19:47;;;;;;;1.50;1.00;;;;;;;10.78;43.94;99352.13;5043572;28;20043;-41
2022/04/21 02:22:13;;;;;;;3.97;0.90;;;;;;;10.79;44.43;99354.63;5052862;28;20049;-40
2022/04/21 02:24:39;;;;;;;1.38;1.00;;;;;;;10.77;44.23;99359.06;5033716;28;20052;-41
2022/04/21 02:27:05;;;;;;;5.60;1.02;;;;;;;10.70;44.61;99362.81;5063444;28;20523;-42
2022/04/21 02:29:30;;;;;;;3.05;1.20;;;;;;;10.61;44.20;99342.38;5054279;28;20048;-40
2022/04/21 02:31:56;;;;;;;1.77;0.95;;;;;;;10.61;44.34;99360.59;5044146;28;20045;-40
2022/04/21 02:34:22;;;;;;;2.25;0.93;;;;;;;10.61;44.33;99345.84;5043331;28;20076;-41
2022/04/21 02:36:48;;;;;;;2.92;1.00;;;;;;;10.43;44.57;99333.56;5058595;28;20048;-40
2022/04/21 02:39:13;;;;;;;1.90;0.90;;;;;;;10.58;44.71;99358.94;5060234;28;20040;-41
2022/04/21 02:41:39;;;;;;;2.90;0.90;;;;;;;10.57;45.03;99357.25;5062539;28;20531;-40
2022/04/21 02:44:05;;;;;;;2.40;1.15;;;;;;;10.45;44.62;99342.16;5043921;28;20474;-40
2022/04/21 02:46:33;;;;;;;2.67;1.00;;;;;;;10.52;44.79;99351.38;5049100;28;20148;-40
2022/04/21 02:49:00;;;;;;;2.25;0.95;;;;;;;10.56;44.90;99357.31;5048570;28;20599;-41
2022/04/21 02:51:28;;;;;;;4.85;1.05;;;;;;;10.58;44.88;99358.94;5027297;28;20128;-40
2022/04/21 02:59:23;;;;;;;3.58;0.95;;;;;;;10.65;44.92;99356.09;5048040;28;20037;-41
2022/04/21 03:01:49;;;;;;;1.02;0.80;;;;;;;10.67;44.67;99347.34;5046632;28;20045;-41
2022/04/21 03:04:15;;;;;;;3.03;1.08;;;;;;;10.68;44.72;99343.00;5044675;28;20128;-41
2022/04/21 03:06:40;;;;;;;1.30;0.70;;;;;;;10.69;44.43;99336.88;5045104;28;20504;-40
2022/04/21 03:09:06;;;;;;;2.75;1.10;;;;;;;10.69;44.35;99348.13;5052925;28;20059;-41
2022/04/21 03:11:32;;;;;;;2.15;0.90;;;;;;;10.73;44.74;99346.25;5075786;28;20044;-41
2022/04/21 03:13:58;;;;;;;1.80;0.73;;;;;;;10.72;44.69;99342.81;5048391;28;20052;-41
2022/04/21 03:16:23;;;;;;;2.65;1.05;;;;;;;10.75;44.43;99360.03;5045816;28;20051;-41
2022/04/21 03:18:49;;;;;;;3.70;0.90;;;;;;;10.77;44.37;99358.22;5048729;28;20130;-40
2022/04/21 03:26:44;;;;;;;2.63;1.17;;;;;;;10.83;44.76;99355.38;5035558;28;20041;-41
2022/04/21 03:29:10;;;;;;;0.95;0.70;;;;;;;10.87;44.87;99359.53;5043823;28;20094;-41
2022/04/21 03:31:36;;;;;;;4.78;1.10;;;;;;;10.83;44.33;99366.63;5070777;28;20483;-41
2022/04/21 03:34:04;;;;;;;3.75;1.10;;;;;;;10.83;44.72;99360.56;5066466;28;20065;-41
2022/04/21 03:36:32;;;;;;;4.60;1.17;;;;;;;10.79;44.85;99356.38;5051304;28;20037;-40
2022/04/21 03:38:58;;;;;;;3.38;1.15;;;;;;;10.81;44.80;99368.44;5049958;28;20534;-42
2022/04/21 03:41:24;;;;;;;2.95;1.10;;;;;;;10.82;45.07;99364.94;5050203;28;20044;-41
2022/04/21 03:43:53;;;;;;;4.70;1.05;;;;;;;10.83;44.72;99358.81;5050113;28;20043;-39
2022/04/21 03:46:18;;;;;;;4.55;0.90;;;;;;;10.82;45.10;99372.72;5049989;28;20501;-40
2022/04/21 03:48:44;;;;;;;3.67;1.02;;;;;;;10.87;45.37;99375.13;5048993;28;20075;-41
2022/04/21 03:51:10;;;;;;;3.35;1.10;;;;;;;10.92;44.98;99381.00;5050325;28;20053;-42
2022/04/21 03:53:35;;;;;;;2.78;1.05;;;;;;;10.82;44.68;99366.69;5050246;28;20571;-40
2022/04/21 03:56:01;;;;;;;10.05;1.10;;;;;;;10.90;44.85;99381.06;5050254;28;20044;-41
2022/04/21 03:58:27;;;;;;;2.50;1.20;;;;;;;10.91;44.90;99376.72;5046933;28;20049;-41
2022/04/21 04:00:52;;;;;;;5.82;1.13;;;;;;;10.93;45.13;99369.69;5065293;28;20037;-41
2022/04/21 04:03:18;;;;;;;2.72;1.13;;;;;;;10.93;45.11;99382.69;5031853;28;20484;-40
2022/04/21 04:05:44;;;;;;;5.78;1.27;;;;;;;10.83;44.29;99351.03;5049834;28;20041;-41
2022/04/21 04:10:54;;;;;;;3.97;1.10;;;;;;;10.94;44.78;99380.00;5049798;28;20068;-43
2022/04/21 04:13:24;;;;;;;8.35;1.00;;;;;;;10.89;44.82;99371.56;5049876;28;20033;-41
2022/04/21 04:15:51;;;;;;;2.83;0.98;;;;;;;11.02;44.82;99377.13;5049853;28;20047;-39
2022/04/21 04:18:19;;;;;;;3.33;1.15;;;;;;;11.00;44.35;99390.19;5049910;28;20424;-40
2022/04/21 04:20:46;;;;;;;3.60;1.10;;;;;;;10.99;44.74;99379.84;5049604;28;20099;-41
2022/04/21 04:23:18;;;;;;;3.83;1.15;;;;;;;10.99;44.86;99377.25;5049015;28;20037;-41
2022/04/21 04:25:44;;;;;;;6.43;1.15;;;;;;;10.99;44.60;99385.06;5064892;28;20043;-41
2022/04/21 04:28:10;;;;;;;4.30;1.27;;;;;;;10.91;44.64;99371.50;5049567;28;20078;-41
2022/04/21 04:30:39;;;;;;;6.03;1.35;;;;;;;10.97;44.65;99384.25;5049348;28;20504;-41
2022/04/21 04:33:05;;;;;;;;;;;;;;;10.96;44.42;99383.41;5048231;28;20501;-41
2022/04/21 04:35:31;;;;;;;7.38;1.38;;;;;;;10.94;44.46;99382.63;5047456;28;19924;-41
2022/04/21 04:37:58;;;;;;;7.80;1.35;;;;;;;10.92;44.97;99381.84;5049389;28;20037;-42
2022/04/21 04:40:25;;;;;;;3.35;1.08;;;;;;;10.90;45.02;99372.41;5048132;28;20835;-42
2022/04/21 04:42:55;;;;;;;4.25;1.10;;;;;;;10.80;44.86;99365.88;5049254;28;20580;-40
2022/04/21 04:48:05;;;;;;;4.95;1.20;;;;;;;10.93;44.81;99380.94;5048983;28;20040;-42
2022/04/21 04:50:31;;;;;;;3.25;1.23;;;;;;;10.90;45.13;99369.81;5049339;28;20118;-43
2022/04/21 04:53:00;;;;;;;3.47;1.33;;;;;;;10.85;45.63;99382.16;5048971;28;20516;-41
2022/04/21 04:55:27;;;;;;;3.15;1.20;;;;;;;10.81;45.84;99377.97;5048728;28;20144;-41
2022/04/21 04:57:53;;;;;;;2.03;1.17;;;;;;;10.81;45.81;99386.63;5048892;28;20044;-41
2022/04/21 05:00:19;;;;;;;2.90;1.10;;;;;;;10.81;45.59;99378.84;5046866;28;20048;-42
2022/04/21 05:02:45;;;;;;;11.15;2.35;;;;;;;10.72;45.62;99357.56;5080802;28;20065;-40
2022/04/21 05:05:14;;;;;;;2.63;1.10;;;;;;;10.84;45.67;99373.50;5048619;28;20068;-41
2022/04/21 05:07:40;;;;;;;4.13;1.02;;;;;;;10.87;45.92;99376.00;5047337;28;20041;-42
2022/04/21 05:10:08;;;;;;;4.60;1.00;;;;;;;10.72;45.63;99349.75;5047054;28;20471;-43
2022/04/21 05:12:34;;;;;;;4.30;1.30;;;;;;;10.87;45.21;99377.75;5080480;28;20037;-42
2022/04/21 05:15:00;;;;;;;5.45;1.48;;;;;;;10.91;45.79;99376.72;5063524;28;20484;-43
2022/04/21 05:17:26;;;;;;;2.30;1.30;;;;;;;10.99;44.99;99372.88;5048141;28;20068;-42
2022/04/21 05:19:52;;;;;;;10.20;1.60;;;;;;;10.94;44.88;99377.41;5047135;28;20558;-43
2022/04/21 05:22:19;;;;;;;4.65;1.25;;;;;;;10.97;45.32;99381.66;5047665;28;20037;-44
2022/04/21 05:24:46;;;;;;;3.92;1.50;;;;;;;10.99;44.91;99388.47;5047812;28;20505;-40
2022/04/21 05:27:13;;;;;;;13.00;2.20;;;;;;;11.02;45.44;99388.38;5079936;28;20094;-43
2022/04/21 05:32:26;;;;;;;7.15;1.40;;;;;;;11.10;45.39;99377.63;5048369;28;20701;-43
2022/04/21 05:34:52;;;;;;;5.15;1.50;;;;;;;11.11;45.10;99392.34;5046983;28;20090;-45
2022/04/21 05:37:18;;;;;;;4.55;1.50;;;;;;;11.14;45.13;99386.19;5046925;28;20134;-47
2022/04/21 05:39:44;;;;;;;4.55;1.33;;;;;;;11.19;45.96;99402.44;5048124;28;20829;-42
2022/04/21 05:42:22;;;;;;;5.22;1.30;;;;;;;11.19;45.95;99387.69;5046707;28;20140;-46
2022/04/21 05:44:52;;;;;;;5.22;1.58;;;;;;;11.16;45.82;99398.19;5047779;28;20508;-45
2022/04/21 05:47:20;;;;;;;4.47;1.40;;;;;;;11.21;46.36;99388.44;5046884;28;20045;-46
2022/04/21 05:49:45;;;;;;;8.23;2.05;;;;;;;11.27;46.24;99398.59;5047857;28;20048;-43
2022/04/21 05:52:13;;;;;;;4.93;1.90;;;;;;;11.24;46.86;99393.53;5080247;28;20063;-40
2022/04/21 05:54:39;;;;;;;2.63;1.70;;;;;;;11.20;47.76;99411.94;5047803;28;20505;-43
2022/04/21 05:57:05;;;;;;;5.00;1.75;;;;;;;11.04;48.42;99409.94;5047055;28;20152;-42
2022/04/21 05:59:32;;;;;;;1.83;1.27;;;;;;;11.01;49.37;99433.50;5045083;28;20424;-41
2022/04/21 06:01:59;;;;;;;6.00;1.60;;;;;;;10.90;50.05;99429.63;5046701;28;20037;-41
2022/04/21 06:04:25;;;;;;;6.15;2.28;;;;;;;10.83;50.26;99446.41;5047614;28;20528;-40
2022/04/21 06:06:52;;;;;;;5.72;1.70;;;;;;;10.80;50.46;99446.50;5046434;28;20094;-42
2022/04/21 06:09:18;;;;;;;5.80;1.58;;;;;;;10.77;51.55;99452.69;5047856;28;20041;-41
2022/04/21 06:11:44;;;;;;;5.93;1.90;;;;;;;10.77;52.20;99455.28;5046191;28;20037;-41
2022/04/21 06:14:10;;;;;;;3.67;1.70;;;;;;;10.77;52.98;99452.69;5047846;28;20044;-41
2022/04/21 06:16:37;;;;;;;4.40;1.95;;;;;;;10.76;53.59;99463.13;5047838;28;20032;-40
2022/04/21 06:19:03;;;;;;;4.30;2.15;;;;;;;10.71;54.34;99458.13;5047404;28;20140;-42
2022/04/21 06:21:29;;;;;;;3.42;1.88;;;;;;;10.74;54.61;99459.72;5046594;28;20040;-41
2022/04/21 06:23:55;;;;;;;4.22;2.20;;;;;;;10.66;54.89;99462.63;5047723;28;20037;-40
2022/04/21 06:26:25;;;;;;;10.80;2.20;;;;;;;10.51;55.03;99448.47;5047726;28;20048;-42
2022/04/21 06:28:52;;;;;;;5.18;2.45;;;;;;;10.54;55.52;99463.94;5047808;28;20056;-41
2022/04/21 06:31:17;;;;;;;7.20;2.50;;;;;;;10.56;56.11;99471.69;5047509;28;20128;-40
2022/04/21 06:33:45;;;;;;;4.55;2.10;;;;;;;10.59;55.98;99468.97;5062967;28;20396;-42
2022/04/21 06:36:11;;;;;;;5.40;1.80;;;;;;;10.58;56.08;99480.25;5047737;28;20128;-40
2022/04/21 06:38:37;;;;;;;3.55;2.03;;;;;;;10.53;56.56;99484.78;5047675;28;20124;-42
2022/04/21 06:41:03;;;;;;;4.25;2.42;;;;;;;10.45;56.71;99468.66;5047627;28;20124;-41
2022/04/21 06:48:57;;;;;;;4.80;2.20;;;;;;;10.44;57.81;99500.72;5051177;28;20136;-40
2022/04/21 06:51:25;;;;;;;4.28;1.92;;;;;;;10.33;58.61;99498.53;5050298;28;20097;-41
2022/04/21 06:53:51;;;;;;;3.83;1.67;;;;;;;10.36;58.86;99503.63;5049929;28;20040;-41
2022/04/21 06:56:17;;;;;;;3.42;1.85;;;;;;;10.37;59.54;99510.50;5083132;28;20079;-41
2022/04/21 06:58:43;;;;;;;5.07;1.85;;;;;;;10.29;60.24;99519.47;5047533;28;20065;-41
2022/04/21 07:01:09;;;;;;;5.55;1.70;;;;;;;10.17;61.76;99524.19;5051073;28;20047;-41
2022/04/21 07:03:35;;;;;;;4.60;1.95;;;;;;;10.06;62.68;99509.84;5049560;28;20049;-42
2022/04/21 07:06:02;;;;;;;3.33;1.77;;;;;;;10.00;63.04;99513.50;5049532;28;20052;-41
2022/04/21 07:08:28;;;;;;;4.32;1.60;;;;;;;9.88;63.42;99518.31;5050652;28;20045;-42
2022/04/21 07:10:54;;;;;;;3.95;1.95;;;;;;;9.95;64.64;99528.41;5083215;28;20056;-40
2022/04/21 07:13:23;;;;;;;3.83;1.80;;;;;;;9.96;64.73;99524.91;5082776;28;20044;-41
2022/04/21 07:15:54;;;;;;;3.85;1.50;;;;;;;10.05;64.70;99528.94;5033253;28;20044;-42
2022/04/21 07:18:19;;;;;;;2.28;1.40;;;;;;;10.02;63.64;99509.13;5050754;28;20147;-42
2022/04/21 07:20:46;;;;;;;2.95;1.30;;;;;;;10.09;63.58;99539.19;5050361;28;20128;-41
2022/04/21 07:23:12;;;;;;;3.20;1.63;;;;;;;10.12;63.15;99533.88;5048891;28;20415;-40
2022/04/21 07:25:39;;;;;;;4.50;1.77;;;;;;;10.06;63.56;99528.88;5050205;28;20139;-41
2022/04/21 07:28:06;;;;;;;6.13;2.05;;;;;;;10.17;63.70;99544.13;5048892;28;20044;-40
2022/04/21 07:30:31;;;;;;;2.10;1.30;;;;;;;10.04;63.78;99528.13;5050283;28;20036;-40
2022/04/21 07:32:57;;;;;;;3.38;1.90;;;;;;;10.15;63.60;99551.94;5032256;28;20044;-42
2022/04/21 07:35:24;;;;;;;4.28;2.92;;;;;;;10.13;64.62;99556.38;5050153;28;20052;-40
2022/04/21 07:37:50;;;;;;;2.80;1.73;;;;;;;10.10;65.08;99559.03;5065366;28;20037;-41
2022/04/21 07:40:16;;;;;;;2.20;1.42;;;;;;;10.08;64.85;99566.06;5050243;28;20075;-41
2022/04/21 07:42:44;;;;;;;3.63;1.50;;;;;;;10.10;65.09;99566.84;5050352;28;20091;-41
2022/04/21 07:45:10;;;;;;;2.93;1.80;;;;;;;10.17;65.17;99573.56;5050435;28;20037;-41
2022/04/21 07:47:36;;;;;;;2.17;1.60;;;;;;;10.23;65.59;99569.91;5050099;28;20047;-42
2022/04/21 07:50:02;;;;;;;3.03;1.50;;;;;;;10.26;65.47;99572.38;5049864;28;20041;-41
2022/04/21 07:55:20;;;;;;;3.58;1.75;;;;;;;10.35;64.81;99566.03;5049899;28;20106;-40
2022/04/21 07:57:46;;;;;;;3.75;1.67;;;;;;;10.39;65.54;99571.06;5064935;28;20043;-42
2022/04/21 08:00:15;;;;;;;4.60;1.67;;;;;;;10.42;64.60;99575.28;5046997;28;20059;-41
2022/04/21 08:02:43;;;;;;;5.05;1.70;;;;;;;10.47;64.75;99573.38;5049737;28;20041;-41
2022/04/21 08:05:10;;;;;;;5.55;1.92;;;;;;;10.56;64.38;99570.47;5049557;28;20052;-40
2022/04/21 08:07:36;;;;;;;4.38;2.10;;;;;;;10.61;64.25;99578.97;5048438;28;20087;-40
2022/04/21 08:10:06;;;;;;;5.07;2.00;;;;;;;10.46;63.61;99564.75;5049893;28;20419;-41
2022/04/21 08:12:42;;;;;;;3.97;1.90;;;;;;;10.58;63.63;99582.50;5049586;28;20053;-41
2022/04/21 08:15:09;;;;;;;3.65;1.80;;;;;;;10.62;63.33;99586.69;5048238;28;20040;-42
2022/04/21 08:17:36;;;;;;;2.75;1.80;;;;;;;10.70;63.59;99595.97;5049388;28;20083;-41
2022/04/21 08:20:11;;;;;;;5.93;2.10;;;;;;;10.68;63.37;99601.22;5047705;28;20134;-41
2022/04/21 08:22:38;;;;;;;5.60;2.10;;;;;;;10.67;64.14;99601.28;5048952;28;20141;-41
2022/04/21 08:33:18;;;;;;;2.03;1.63;;;;;;;10.54;64.55;99609.50;5049449;28;20512;-41
2022/04/21 08:35:45;;;;;;;4.93;2.10;;;;;;;10.54;64.70;99612.13;5048049;28;20051;-42
2022/04/21 08:38:15;;;;;;;3.53;1.80;;;;;;;10.55;65.23;99607.75;5047618;28;20048;-41
2022/04/21 08:40:51;;;;;;;3.28;1.85;;;;;;;10.53;66.04;99613.00;5049142;28;20044;-40
2022/04/21 08:43:19;;;;;;;6.32;2.60;;;;;;;10.55;66.23;99613.81;5048912;28;20064;-40
2022/04/21 08:45:47;;;;;;;3.83;2.33;;;;;;;10.56;66.64;99615.53;5049013;28;20512;-40
2022/04/21 08:48:15;;;;;;;5.28;2.17;;;;;;;10.58;67.53;99618.91;5048735;28;20039;-42
2022/04/21 08:50:41;;;;;;;9.15;2.30;;;;;;;10.48;68.51;99603.69;5048758;28;20053;-41
2022/04/21 08:53:08;;;;;;;4.63;2.20;;;;;;;10.53;69.27;99617.34;5081038;28;20577;-43
2022/04/21 08:55:34;;;;;;;6.18;2.60;;;;;;;10.39;69.25;99610.06;5048870;28;20159;-41
2022/04/21 08:58:01;;;;;;;4.82;2.50;;;;;;;10.44;69.47;99625.47;5047614;28;20124;-40
2022/04/21 09:00:27;;;;;;;5.13;2.38;;;;;;;10.40;68.99;99632.56;5046983;28;20041;-41
2022/04/21 09:02:55;;;;;;;4.03;1.93;;;;;;;10.40;69.10;99635.16;5048443;28;20045;-40
2022/04/21 09:05:22;;;;;;;3.75;2.42;;;;;;;10.37;69.20;99635.22;5048719;28;21136;-41
2022/04/21 09:07:49;;;;;;;4.18;2.60;;;;;;;10.47;69.61;99643.56;5080359;28;20432;-41
2022/04/21 09:10:18;;;;;;;;;;;;;;;10.48;70.14;99648.72;5048950;28;20041;-40
2022/04/21 09:12:48;;;;;;;5.93;1.92;;;;;;;10.45;70.29;99650.56;5080716;28;19928;-40
2022/04/21 09:15:19;;;;;;;3.75;2.08;;;;;;;10.36;70.24;99653.50;5048332;28;20048;-41
2022/04/21 09:17:53;;;;;;;4.78;2.50;;;;;;;10.35;69.29;99663.03;5030315;28;20482;-43
2022/04/21 09:20:39;;;;;;;3.45;2.20;;;;;;;10.27;69.45;99653.78;5048456;28;20134;-41
2022/04/21 09:23:12;;;;;;;4.55;2.00;;;;;;;10.34;69.94;99666.53;5080238;28;20045;-42
2022/04/21 09:25:49;;;;;;;3.67;1.85;;;;;;;10.35;70.07;99664.78;5048278;28;20195;-41
2022/04/21 09:28:26;;;;;;;5.00;2.08;;;;;;;10.38;70.27;99664.66;5080280;28;20068;-41
2022/04/21 09:30:55;;;;;;;4.88;2.10;;;;;;;10.40;70.11;99666.34;5047950;28;20068;-41
2022/04/21 09:33:40;;;;;;;7.00;2.00;;;;;;;10.40;69.44;99662.88;5046882;28;20139;-42
2022/04/21 09:36:07;;;;;;;3.53;2.17;;;;;;;10.43;69.58;99678.34;5047880;28;20036;-41
2022/04/21 09:38:36;;;;;;;4.32;1.90;;;;;;;10.40;68.79;99668.09;5046982;28;20036;-41
2022/04/21 09:41:10;;;;;;;5.50;3.13;;;;;;;10.44;68.47;99685.25;5048130;28;20763;-41
2022/04/21 09:43:38;;;;;;;2.90;1.85;;;;;;;10.33;68.59;99653.59;5063373;28;20070;-41
2022/04/21 09:46:31;;;;;;;3.88;2.00;;;;;;;10.45;68.46;99700.81;5048092;28;20579;-41
2022/04/21 09:48:56;;;;;;;6.40;1.70;;;;;;;10.43;67.53;99676.63;5026681;28;20560;-42
2022/04/21 09:51:29;;;;;;;3.95;1.92;;;;;;;10.38;67.80;99694.09;5027005;28;20064;-41
2022/04/21 09:53:58;;;;;;;3.95;1.90;;;;;;;10.41;67.27;99703.56;5028093;28;20183;-41
2022/04/21 09:56:39;;;;;;;3.97;2.60;;;;;;;10.45;67.36;99705.16;5027940;28;20048;-40
2022/04/21 09:59:09;;;;;;;3.25;1.70;;;;;;;10.37;67.06;99710.59;5025914;28;20520;-42
2022/04/21 10:01:41;;;;;;;3.70;1.70;;;;;;;10.32;67.11;99703.84;5026457;28;20049;-40
2022/04/21 10:04:08;;;;;;;4.93;1.70;;;;;;;10.19;67.16;99688.69;5027827;28;20053;-41
2022/04/21 10:06:43;;;;;;;5.07;2.00;;;;;;;10.33;68.59;99709.00;5028631;28;20034;-41
2022/04/21 10:09:10;;;;;;;3.25;1.90;;;;;;;10.28;68.93;99717.84;5047855;28;20094;-41
2022/04/21 10:11:41;;;;;;;2.75;1.42;;;;;;;10.13;69.36;99722.63;5047994;28;20535;-40
2022/04/21 10:14:11;;;;;;;4.20;2.28;;;;;;;10.03;69.39;99705.63;5047720;28;20075;-41
2022/04/21 10:16:37;;;;;;;3.50;1.48;;;;;;;10.09;69.04;99736.59;5062666;28;20064;-42
2022/04/21 10:19:03;;;;;;;4.35;1.83;;;;;;;10.09;68.37;99739.22;5047523;28;20536;-41
2022/04/21 10:21:32;;;;;;;4.78;2.13;;;;;;;10.10;69.59;99746.06;5079911;28;20123;-41
2022/04/21 10:23:59;;;;;;;2.55;1.77;;;;;;;10.18;69.10;99740.69;5066529;28;20033;-41
2022/04/21 10:26:43;;;;;;;3.80;1.75;;;;;;;10.25;68.54;99749.16;5066187;28;20037;-44
2022/04/21 10:29:21;;;;;;;2.78;1.88;;;;;;;10.13;67.63;99729.56;5049629;28;20079;-40
2022/04/21 10:32:00;;;;;;;3.00;1.73;;;;;;;10.35;68.03;99746.19;5050812;28;20066;-41
2022/04/21 10:34:28;;;;;;;3.47;2.03;;;;;;;10.36;67.84;99753.09;5049734;28;20049;-41
2022/04/21 10:37:15;;;;;;;3.63;1.65;;;;;;;10.37;68.30;99764.31;5050176;28;20029;-41
2022/04/21 10:40:04;;;;;;;3.90;1.95;;;;;;;10.43;68.50;99767.59;5051196;28;20044;-42
2022/04/21 10:42:29;;;;;;;5.90;2.03;;;;;;;10.49;67.91;99753.53;5083250;28;20488;-40
2022/04/21 10:44:56;;;;;;;5.95;1.70;;;;;;;10.51;67.49;99757.81;5049890;28;20163;-42
2022/04/21 10:47:38;;;;;;;3.13;1.75;;;;;;;10.46;67.37;99743.25;5049767;28;20432;-42
2022/04/21 10:50:15;;;;;;;3.63;1.65;;;;;;;10.55;66.85;99745.53;5082494;28;20211;-41
2022/04/21 10:58:33;;;;;;;3.27;1.40;;;;;;;10.56;64.85;99776.69;5046329;28;20534;-40
2022/04/21 11:01:11;;;;;;;1.83;1.27;;;;;;;10.56;64.79;99781.03;5049307;28;20123;-40
2022/04/21 11:03:37;;;;;;;2.25;1.33;;;;;;;10.48;65.10;99777.81;5048750;28;20088;-40
2022/04/21 11:06:10;;;;;;;2.33;1.58;;;;;;;10.48;64.83;99776.06;5047734;28;20037;-43
2022/04/21 11:08:36;;;;;;;3.60;1.88;;;;;;;10.58;65.04;99774.03;5048569;28;20040;-41
2022/04/21 11:11:03;;;;;;;3.30;1.60;;;;;;;10.47;64.95;99752.72;5047281;28;20074;-41
2022/04/21 11:14:05;;;;;;;5.38;3.00;;;;;;;10.71;64.76;99784.88;5080571;28;20485;-41
2022/04/21 11:16:40;;;;;;;3.35;1.90;;;;;;;10.69;64.99;99778.88;5049507;28;20077;-39
2022/04/21 11:19:28;;;;;;;2.53;1.75;;;;;;;10.70;65.43;99785.78;5082682;28;20500;-41
2022/04/21 11:21:55;;;;;;;3.70;1.98;;;;;;;10.71;64.70;99793.53;5049001;28;20131;-41
2022/04/21 11:24:21;;;;;;;3.83;2.00;;;;;;;10.74;65.59;99790.81;5048417;28;20676;-42
2022/04/21 11:26:55;;;;;;;5.10;2.60;;;;;;;10.72;65.69;99792.66;5051047;28;20037;-41
2022/04/21 11:29:21;;;;;;;3.95;2.45;;;;;;;10.71;65.23;99792.69;5060865;28;20048;-42
2022/04/21 11:31:47;;;;;;;3.53;2.10;;;;;;;10.71;65.25;99796.13;5050341;28;20033;-43
2022/04/21 11:34:21;;;;;;;4.47;2.60;;;;;;;10.73;65.04;99812.53;5047973;28;20079;-44
2022/04/21 11:36:47;;;;;;;3.85;2.00;;;;;;;10.66;65.58;99808.44;5048251;28;20052;-39
2022/04/21 11:39:13;;;;;;;3.33;2.30;;;;;;;10.55;65.77;99808.78;5049252;28;20049;-41
2022/04/21 11:41:44;;;;;;;4.30;2.60;;;;;;;10.47;65.82;99813.38;5048583;28;20052;-41
2022/04/21 11:44:20;;;;;;;4.25;2.60;;;;;;;10.46;66.50;99809.09;5053540;28;20048;-41
2022/04/21 11:46:47;;;;;;;4.22;2.17;;;;;;;10.43;66.76;99806.56;5042988;28;20041;-42
2022/04/21 11:49:14;;;;;;;6.47;2.35;;;;;;;10.39;66.55;99812.78;5071867;28;20040;-40
2022/04/21 11:51:42;;;;;;;2.70;1.83;;;;;;;10.34;66.51;99822.47;5051564;28;20044;-41
2022/04/21 11:54:10;;;;;;;2.92;1.88;;;;;;;10.29;67.32;99821.75;5052329;28;20466;-48
2022/04/21 11:56:36;;;;;;;4.70;2.20;;;;;;;10.19;66.49;99815.16;5042587;28;20504;-42
2022/04/21 11:59:09;;;;;;;5.28;2.00;;;;;;;10.20;66.43;99809.06;5057324;28;20044;-42
2022/04/21 12:07:09;;;;;;;2.78;1.75;;;;;;;10.41;66.68;99817.94;5041587;28;20078;-42
2022/04/21 12:09:39;;;;;;;4.80;2.30;;;;;;;10.37;66.44;99817.16;5057657;28;20590;-41
2022/04/21 12:12:07;;;;;;;3.17;2.15;;;;;;;10.39;66.63;99824.91;5031067;28;20040;-42
2022/04/21 12:14:33;;;;;;;4.85;2.00;;;;;;;10.40;66.49;99826.63;5055850;28;20533;-41
2022/04/21 12:17:00;;;;;;;6.05;3.10;;;;;;;10.40;66.44;99822.28;5047729;28;20123;-43
2022/04/21 12:19:48;;;;;;;4.40;2.30;;;;;;;10.40;66.41;99822.28;5034443;28;20175;-42
2022/04/21 12:22:31;;;;;;;4.25;2.20;;;;;;;10.36;66.78;99812.03;5033893;28;20045;-40
2022/04/21 12:24:57;;;;;;;4.13;2.20;;;;;;;10.36;66.44;99819.81;5040231;28;20033;-42
2022/04/21 12:27:25;;;;;;;4.38;2.90;;;;;;;10.34;66.73;99819.00;5036224;28;20437;-42
2022/04/21 12:29:59;;;;;;;4.32;2.47;;;;;;;10.43;66.57;99832.56;5031627;28;20041;-41
2022/04/21 12:32:29;;;;;;;2.67;2.00;;;;;;;10.49;65.88;99834.13;5069800;28;20049;-43
2022/04/21 12:35:06;;;;;;;6.38;1.98;;;;;;;10.56;66.01;99823.50;5040254;28;20095;-43